createdAt,value
2022-09-12T00:01:09.217Z,81.57
2022-09-12T00:03:39.098Z,81.67
2022-09-12T00:06:22.628Z,81.80
2022-09-12T00:08:47.762Z,81.78
2022-09-12T00:11:15.915Z,81.67
2022-09-12T00:13:43.609Z,81.76
2022-09-12T00:16:20.183Z,81.86
2022-09-12T00:18:47.936Z,81.79
2022-09-12T00:21:16.473Z,81.97
2022-09-12T00:23:43.941Z,82.19
2022-09-12T00:26:11.507Z,82.22
2022-09-12T00:28:40.181Z,82.11
2022-09-12T00:31:13.121Z,82.22
2022-09-12T00:33:40.730Z,82.31
2022-09-12T00:36:14.861Z,82.57
2022-09-12T00:38:43.646Z,82.64
2022-09-12T00:41:14.683Z,82.63
2022-09-12T00:43:44.239Z,82.63
2022-09-12T00:46:18.314Z,82.82
2022-09-12T00:48:58.408Z,82.89
2022-09-12T00:51:26.246Z,82.96
2022-09-12T00:53:55.318Z,82.78
2022-09-12T00:56:23.911Z,82.82
2022-09-12T00:58:55.364Z,82.77
2022-09-12T01:01:23.105Z,82.57
2022-09-12T01:03:50.782Z,82.30
2022-09-12T01:06:24.726Z,82.50
2022-09-12T01:08:52.436Z,82.52
2022-09-12T01:11:20.934Z,82.64
2022-09-12T01:13:48.496Z,82.87
2022-09-12T01:16:16.275Z,82.88
2022-09-12T01:18:50.417Z,82.80
2022-09-12T01:21:53.423Z,82.77
2022-09-12T01:24:44.159Z,82.77
2022-09-12T01:27:48.821Z,82.85
2022-09-12T01:30:34.915Z,82.81
2022-09-12T01:33:05.908Z,82.63
2022-09-12T01:35:45.674Z,82.71
2022-09-12T01:38:31.935Z,82.75
2022-09-12T01:41:18.272Z,82.74
2022-09-12T01:43:50.211Z,82.80
2022-09-12T01:46:21.287Z,82.72
2022-09-12T01:48:51.990Z,82.98
2022-09-12T01:51:35.329Z,82.97
2022-09-12T01:54:11.603Z,82.93
2022-09-12T01:56:41.151Z,82.90
2022-09-12T01:59:11.837Z,83.07
2022-09-12T02:01:45.164Z,83.10
2022-09-12T02:04:31.134Z,82.97
2022-09-12T02:07:13.199Z,82.93
2022-09-12T02:09:56.806Z,82.88
2022-09-12T02:12:29.818Z,82.98
2022-09-12T02:14:59.945Z,83.15
2022-09-12T02:17:28.799Z,83.24
2022-09-12T02:20:03.116Z,83.41
2022-09-12T02:22:31.562Z,83.52
2022-09-12T02:25:00.513Z,83.75
2022-09-12T02:27:36.377Z,83.83
2022-09-12T02:30:05.745Z,84.03
2022-09-12T02:32:49.108Z,84.20
2022-09-12T02:35:43.431Z,84.05
2022-09-12T02:38:30.042Z,84.04
2022-09-12T02:40:57.582Z,84.10
2022-09-12T02:43:25.160Z,84.11
2022-09-12T02:45:53.576Z,84.09
2022-09-12T02:48:27.489Z,84.06
2022-09-12T02:50:54.901Z,84.21
2022-09-12T02:53:22.993Z,84.23
2022-09-12T02:55:51.440Z,84.22
2022-09-12T02:58:21.976Z,84.51
2022-09-12T03:01:27.109Z,84.57
2022-09-12T03:04:07.160Z,84.61
2022-09-12T03:06:47.056Z,84.63
2022-09-12T03:09:23.974Z,84.52
2022-09-12T03:11:54.814Z,84.63
2022-09-12T03:14:44.279Z,84.50
2022-09-12T03:17:15.374Z,84.55
2022-09-12T03:20:04.720Z,84.45
2022-09-12T03:22:48.122Z,84.33
2022-09-12T03:25:27.371Z,84.15
2022-09-12T03:28:06.820Z,84.42
2022-09-12T03:30:41.674Z,84.35
2022-09-12T03:33:15.022Z,84.65
2022-09-12T03:35:43.091Z,84.66
2022-09-12T03:38:10.672Z,84.66
2022-09-12T03:40:38.945Z,84.47
2022-09-12T03:43:07.934Z,84.56
2022-09-12T03:45:36.223Z,84.68
2022-09-12T03:48:05.574Z,84.74
2022-09-12T03:50:35.810Z,84.66
2022-09-12T03:53:04.275Z,84.69
2022-09-12T03:55:31.952Z,84.66
2022-09-12T03:57:59.502Z,84.69
2022-09-12T04:00:29.185Z,84.75
2022-09-12T04:02:57.225Z,84.61
2022-09-12T04:05:25.853Z,84.47
2022-09-12T04:07:53.557Z,84.64
2022-09-12T04:10:22.179Z,84.79
2022-09-12T04:12:49.412Z,84.80
2022-09-12T04:15:16.650Z,84.80
2022-09-12T04:17:44.070Z,84.82
2022-09-12T04:20:11.621Z,84.81
2022-09-12T04:22:45.270Z,85.04
2022-09-12T04:25:13.340Z,85.06
2022-09-12T04:27:43.314Z,85.11
2022-09-12T04:30:11.105Z,85.17
2022-09-12T04:32:38.627Z,85.28
2022-09-12T04:35:06.265Z,85.48
2022-09-12T04:37:33.732Z,85.42
2022-09-12T04:40:01.319Z,85.52
2022-09-12T04:42:29.507Z,85.57
2022-09-12T04:44:56.887Z,85.57
2022-09-12T04:47:24.319Z,85.78
2022-09-12T04:49:52.312Z,85.49
2022-09-12T04:52:20.305Z,85.61
2022-09-12T04:54:47.723Z,85.59
2022-09-12T04:57:15.147Z,85.45
2022-09-12T04:59:42.647Z,85.34
2022-09-12T05:02:10.029Z,85.37
2022-09-12T05:04:37.547Z,85.30
2022-09-12T05:07:05.381Z,85.20
2022-09-12T05:09:32.864Z,85.19
2022-09-12T05:12:04.347Z,85.02
2022-09-12T05:14:31.709Z,84.99
2022-09-12T05:17:00.928Z,85.01
2022-09-12T05:19:29.585Z,84.87
2022-09-12T05:21:56.836Z,84.93
2022-09-12T05:24:24.593Z,85.02
2022-09-12T05:26:51.996Z,85.00
2022-09-12T05:29:19.526Z,85.08
2022-09-12T05:31:48.956Z,85.20
2022-09-12T05:34:16.204Z,85.29
2022-09-12T05:36:43.852Z,85.37
2022-09-12T05:39:11.539Z,85.40
2022-09-12T05:41:38.886Z,85.50
2022-09-12T05:44:09.284Z,85.79
2022-09-12T05:46:38.687Z,85.76
2022-09-12T05:49:09.318Z,85.50
2022-09-12T05:51:39.279Z,85.33
2022-09-12T05:54:08.417Z,85.22
2022-09-12T05:56:40.762Z,85.26
2022-09-12T05:59:13.899Z,85.15
2022-09-12T06:01:41.775Z,84.96
2022-09-12T06:04:09.275Z,84.44
2022-09-12T06:06:40.936Z,84.24
2022-09-12T06:09:08.837Z,84.00
2022-09-12T06:11:37.421Z,83.96
2022-09-12T06:14:07.870Z,83.71
2022-09-12T06:16:36.724Z,83.28
2022-09-12T06:19:06.542Z,83.07
2022-09-12T06:21:39.328Z,83.02
2022-09-12T06:24:09.949Z,82.61
2022-09-12T06:26:37.467Z,81.14
2022-09-12T06:29:05.180Z,80.28
2022-09-12T06:31:34.693Z,80.81
2022-09-12T06:34:05.832Z,80.88
2022-09-12T06:36:36.547Z,80.66
2022-09-12T06:39:07.139Z,79.37
2022-09-12T06:41:34.788Z,79.54
2022-09-12T06:44:02.985Z,79.00
2022-09-12T06:46:33.174Z,79.54
2022-09-12T06:49:00.969Z,78.79
2022-09-12T06:51:28.751Z,80.24
2022-09-12T06:53:56.949Z,74.56
2022-09-12T06:56:26.615Z,74.60
2022-09-12T06:58:56.772Z,72.96
2022-09-12T07:01:27.241Z,69.25
2022-09-12T07:03:57.012Z,64.03
2022-09-12T07:06:29.001Z,63.29
2022-09-12T07:08:57.831Z,61.91
2022-09-12T07:11:27.392Z,63.05
2022-09-12T07:13:55.947Z,63.05
2022-09-12T07:16:23.330Z,61.56
2022-09-12T07:18:54.484Z,60.19
2022-09-12T07:21:22.134Z,60.45
2022-09-12T07:23:51.274Z,57.38
2022-09-12T07:26:18.773Z,57.51
2022-09-12T07:28:49.761Z,57.02
2022-09-12T07:31:18.600Z,56.14
2022-09-12T07:33:47.490Z,57.43
2022-09-12T07:36:16.918Z,55.29
2022-09-12T07:38:44.285Z,54.10
2022-09-12T07:41:17.246Z,53.61
2022-09-12T07:43:45.022Z,51.92
2022-09-12T07:46:13.836Z,51.70
2022-09-12T07:48:41.130Z,52.64
2022-09-12T07:51:10.313Z,49.81
2022-09-12T07:53:40.076Z,49.21
2022-09-12T07:56:09.830Z,48.01
2022-09-12T07:58:37.941Z,46.26
2022-09-12T08:01:17.212Z,48.05
2022-09-12T08:03:46.827Z,50.24
2022-09-12T08:06:19.746Z,48.78
2022-09-12T08:08:48.294Z,48.53
2022-09-12T08:11:17.600Z,49.04
2022-09-12T08:13:45.305Z,47.43
2022-09-12T08:16:15.917Z,48.58
2022-09-12T08:18:43.866Z,48.69
2022-09-12T08:21:14.715Z,47.77
2022-09-12T08:23:43.087Z,47.34
2022-09-12T08:26:11.624Z,48.17
2022-09-12T08:28:41.234Z,46.71
2022-09-12T08:31:11.080Z,47.67
2022-09-12T08:33:38.541Z,48.98
2022-09-12T08:36:17.266Z,47.69
2022-09-12T08:38:45.909Z,46.80
2022-09-12T08:41:46.006Z,46.97
2022-09-12T08:44:32.140Z,47.91
2022-09-12T08:47:17.690Z,46.42
2022-09-12T08:49:54.738Z,47.70
2022-09-12T08:52:34.902Z,46.33
2022-09-12T08:55:04.943Z,45.71
2022-09-12T08:57:32.981Z,46.90
2022-09-12T09:00:02.155Z,45.69
2022-09-12T09:02:39.529Z,45.53
2022-09-12T09:05:19.785Z,44.10
2022-09-12T09:07:56.444Z,44.46
2022-09-12T09:10:48.289Z,43.13
2022-09-12T09:13:21.000Z,43.75
2022-09-12T09:15:58.248Z,42.29
2022-09-12T09:18:34.519Z,41.89
2022-09-12T09:21:24.244Z,42.00
2022-09-12T09:23:55.266Z,42.33
2022-09-12T09:26:29.281Z,40.03
2022-09-12T09:29:12.394Z,42.23
2022-09-12T09:31:40.353Z,41.78
2022-09-12T09:34:15.188Z,42.70
2022-09-12T09:36:46.245Z,39.41
2022-09-12T09:39:29.448Z,42.47
2022-09-12T09:42:17.343Z,40.88
2022-09-12T09:44:48.368Z,39.39
2022-09-12T09:47:18.461Z,41.04
2022-09-12T09:49:46.773Z,39.52
2022-09-12T09:52:16.742Z,40.66
2022-09-12T09:54:51.476Z,38.67
2022-09-12T09:57:37.882Z,38.11
2022-09-12T10:00:27.071Z,39.57
2022-09-12T10:03:14.104Z,39.69
2022-09-12T10:05:49.730Z,37.53
2022-09-12T10:08:20.847Z,38.58
2022-09-12T10:11:08.729Z,39.37
2022-09-12T10:13:39.884Z,37.84
2022-09-12T10:16:21.651Z,35.74
2022-09-12T10:18:50.515Z,36.38
2022-09-12T10:21:41.189Z,37.39
2022-09-12T10:24:20.396Z,35.33
2022-09-12T10:27:00.420Z,35.56
2022-09-12T10:29:31.619Z,36.29
2022-09-12T10:32:07.789Z,35.47
2022-09-12T10:34:38.436Z,35.99
2022-09-12T10:37:37.654Z,35.66
2022-09-12T10:40:11.540Z,35.59
2022-09-12T10:42:53.513Z,34.68
2022-09-12T10:45:30.697Z,34.94
2022-09-12T10:48:05.493Z,34.57
2022-09-12T10:50:41.963Z,35.42
2022-09-12T10:53:21.362Z,32.79
2022-09-12T10:56:09.848Z,33.62
2022-09-12T10:59:05.193Z,33.50
2022-09-12T11:01:48.499Z,33.61
2022-09-12T11:04:20.468Z,33.24
2022-09-12T11:07:09.419Z,33.57
2022-09-12T11:09:59.084Z,33.94
2022-09-12T11:12:40.435Z,33.39
2022-09-12T11:15:25.101Z,34.14
2022-09-12T11:18:01.500Z,34.56
2022-09-12T11:20:53.790Z,34.18
2022-09-12T11:23:47.919Z,33.63
2022-09-12T11:26:22.987Z,32.88
2022-09-12T11:29:28.214Z,33.85
2022-09-12T11:32:07.905Z,32.96
2022-09-12T11:34:57.645Z,33.20
2022-09-12T11:37:34.255Z,33.19
2022-09-12T11:40:20.353Z,33.28
2022-09-12T11:42:49.517Z,33.20
2022-09-12T11:45:29.435Z,33.74
2022-09-12T11:47:59.492Z,32.44
2022-09-12T11:50:29.613Z,33.92
2022-09-12T11:53:12.725Z,34.48
2022-09-12T11:55:44.037Z,33.97
2022-09-12T11:58:11.502Z,35.18
2022-09-12T12:00:44.496Z,34.87
2022-09-12T12:03:24.523Z,35.34
2022-09-12T12:06:08.174Z,35.17
2022-09-12T12:08:42.191Z,33.60
2022-09-12T12:11:10.822Z,35.75
2022-09-12T12:13:46.740Z,34.68
2022-09-12T12:16:39.297Z,35.39
2022-09-12T12:19:20.147Z,34.00
2022-09-12T12:21:50.025Z,33.35
2022-09-12T12:24:24.793Z,34.25
2022-09-12T12:27:02.644Z,33.96
2022-09-12T12:29:41.558Z,34.19
2022-09-12T12:32:12.548Z,32.47
2022-09-12T12:34:45.140Z,33.29
2022-09-12T12:37:29.378Z,34.58
2022-09-12T12:40:04.866Z,34.78
2022-09-12T12:42:36.294Z,34.24
2022-09-12T12:45:10.675Z,35.01
2022-09-12T12:47:44.438Z,35.09
2022-09-12T12:50:25.533Z,34.43
2022-09-12T12:52:58.203Z,34.56
2022-09-12T12:55:33.630Z,33.39
2022-09-12T12:58:05.604Z,33.23
2022-09-12T13:00:35.502Z,33.25
2022-09-12T13:03:06.349Z,34.68
2022-09-12T13:05:46.473Z,33.26
2022-09-12T13:08:20.416Z,33.96
2022-09-12T13:10:56.444Z,34.27
2022-09-12T13:13:30.423Z,33.73
2022-09-12T13:15:58.616Z,35.24
2022-09-12T13:18:29.947Z,33.57
2022-09-12T13:21:16.214Z,34.35
2022-09-12T13:23:45.030Z,33.74
2022-09-12T13:26:16.383Z,34.47
2022-09-12T13:28:43.587Z,34.19
2022-09-12T13:31:17.318Z,33.71
2022-09-12T13:33:56.894Z,35.12
2022-09-12T13:36:33.808Z,36.13
2022-09-12T13:39:23.734Z,36.07
2022-09-12T13:42:06.995Z,36.62
2022-09-12T13:44:43.122Z,35.67
2022-09-12T13:47:13.991Z,35.77
2022-09-12T13:49:41.870Z,36.21
2022-09-12T13:52:18.241Z,36.93
2022-09-12T13:54:47.877Z,37.21
2022-09-12T13:57:40.643Z,37.03
2022-09-12T14:00:18.751Z,37.26
2022-09-12T14:02:47.405Z,37.43
2022-09-12T14:05:21.035Z,38.16
2022-09-12T14:07:57.996Z,37.76
2022-09-12T14:10:31.287Z,38.17
2022-09-12T14:12:59.887Z,38.46
2022-09-12T14:15:30.632Z,38.68
2022-09-12T14:18:01.081Z,38.93
2022-09-12T14:20:32.723Z,39.08
2022-09-12T14:23:05.952Z,38.94
2022-09-12T14:25:39.946Z,39.08
2022-09-12T14:28:10.358Z,38.73
2022-09-12T14:30:38.279Z,39.15
2022-09-12T14:33:15.570Z,39.03
2022-09-12T14:35:51.551Z,39.24
2022-09-12T14:38:35.818Z,39.68
2022-09-12T14:41:08.290Z,40.07
2022-09-12T14:43:44.224Z,40.42
2022-09-12T14:46:26.043Z,40.23
2022-09-12T14:48:57.813Z,39.62
2022-09-12T14:51:31.985Z,39.92
2022-09-12T14:54:01.693Z,40.55
2022-09-12T14:56:40.596Z,40.67
2022-09-12T14:59:30.501Z,41.09
2022-09-12T15:02:21.239Z,40.26
2022-09-12T15:04:52.464Z,40.69
2022-09-12T15:07:41.429Z,40.75
2022-09-12T15:10:24.954Z,41.10
2022-09-12T15:13:16.268Z,41.61
2022-09-12T15:15:57.991Z,41.93
2022-09-12T15:18:27.102Z,41.33
2022-09-12T15:20:57.135Z,41.45
2022-09-12T15:23:34.502Z,41.65
2022-09-12T15:26:02.403Z,42.18
2022-09-12T15:28:31.163Z,42.45
2022-09-12T15:31:01.870Z,42.71
2022-09-12T15:33:29.051Z,42.88
2022-09-12T15:35:56.339Z,43.19
2022-09-12T15:38:26.529Z,43.46
2022-09-12T15:40:54.046Z,43.67
2022-09-12T15:43:25.859Z,43.90
2022-09-12T15:45:59.207Z,44.13
2022-09-12T15:48:26.336Z,44.56
2022-09-12T15:50:53.431Z,44.85
2022-09-12T15:53:20.973Z,44.88
2022-09-12T15:55:48.048Z,45.04
2022-09-12T15:58:14.927Z,45.38
2022-09-12T16:00:42.124Z,45.32
2022-09-12T16:03:24.767Z,45.24
2022-09-12T16:05:58.757Z,45.26
2022-09-12T17:42:56.122Z,51.85
2022-09-12T17:45:23.595Z,52.20
2022-09-12T17:47:51.091Z,52.43
2022-09-12T17:50:31.347Z,52.34
2022-09-12T17:52:49.309Z,52.73
2022-09-12T17:55:16.895Z,52.50
2022-09-12T17:57:46.490Z,52.67
2022-09-12T18:00:15.911Z,52.97
2022-09-12T18:02:45.035Z,52.81
2022-09-12T18:05:13.604Z,53.16
2022-09-12T18:07:44.044Z,53.32
2022-09-12T18:10:11.608Z,53.42
2022-09-12T18:12:38.885Z,53.54
2022-09-12T18:15:07.720Z,53.82
2022-09-12T18:17:34.895Z,53.87
2022-09-12T18:20:02.423Z,53.92
2022-09-12T18:22:29.701Z,54.00
2022-09-12T18:24:57.050Z,54.16
2022-09-12T18:27:24.431Z,54.43
2022-09-12T18:30:04.478Z,54.55
2022-09-12T18:32:20.831Z,54.88
2022-09-12T18:34:48.274Z,55.17
2022-09-12T18:37:15.635Z,55.15
2022-09-12T18:39:43.057Z,55.27
2022-09-12T18:42:10.631Z,55.22
2022-09-12T18:44:37.739Z,55.24
2022-09-12T18:47:05.870Z,55.43
2022-09-12T18:49:35.131Z,55.54
2022-09-12T18:52:02.353Z,55.68
2022-09-12T18:54:29.480Z,56.17
2022-09-12T18:56:56.765Z,56.14
2022-09-12T18:59:24.159Z,56.26
2022-09-12T19:01:51.666Z,56.35
2022-09-12T19:04:19.174Z,56.55
2022-09-12T19:06:50.666Z,56.60
2022-09-12T19:09:22.715Z,56.56
2022-09-12T19:11:50.323Z,56.84
2022-09-12T19:14:22.055Z,57.01
2022-09-12T19:16:51.535Z,57.39
2022-09-12T19:19:19.151Z,57.40
2022-09-12T19:21:46.371Z,57.45
2022-09-12T19:24:14.118Z,57.73
2022-09-12T19:26:41.500Z,58.05
2022-09-12T19:29:10.294Z,58.15
2022-09-12T19:31:37.644Z,58.45
2022-09-12T19:34:06.415Z,58.26
2022-09-12T19:36:44.895Z,58.72
2022-09-12T19:39:07.740Z,58.65
2022-09-12T19:41:35.395Z,58.47
2022-09-12T19:44:03.787Z,58.72
2022-09-12T19:46:31.084Z,58.58
2022-09-12T19:48:58.483Z,58.92
2022-09-12T19:51:25.789Z,59.15
2022-09-12T19:53:53.187Z,59.13
2022-09-12T19:56:21.153Z,59.63
2022-09-12T19:58:55.039Z,59.60
2022-09-12T20:01:23.390Z,59.78
2022-09-12T20:03:52.659Z,59.90
2022-09-12T20:06:19.999Z,60.32
2022-09-12T20:08:47.175Z,60.41
2022-09-12T20:11:17.226Z,60.85
2022-09-12T20:13:45.486Z,61.12
2022-09-12T20:16:24.990Z,61.30
2022-09-12T20:18:58.076Z,62.17
2022-09-12T20:21:35.223Z,62.85
2022-09-12T20:24:13.384Z,62.73
2022-09-12T20:26:41.606Z,63.04
2022-09-12T20:29:09.566Z,63.67
2022-09-12T20:31:38.670Z,63.73
2022-09-12T20:34:06.781Z,63.86
2022-09-12T20:36:34.028Z,63.66
2022-09-12T20:39:02.467Z,63.85
2022-09-12T20:41:32.689Z,64.23
2022-09-12T20:43:59.860Z,64.54
2022-09-12T20:46:27.973Z,64.62
2022-09-12T20:48:55.380Z,64.38
2022-09-12T20:51:24.766Z,65.07
2022-09-12T20:53:57.652Z,64.76
2022-09-12T20:56:26.526Z,64.82
2022-09-12T20:58:54.442Z,64.59
2022-09-12T21:01:22.240Z,64.67
2022-09-12T21:03:49.922Z,65.01
2022-09-12T21:06:18.211Z,64.98
2022-09-12T21:08:46.648Z,65.19
2022-09-12T21:11:14.664Z,65.41
2022-09-12T21:13:42.067Z,65.51
2022-09-12T21:16:14.754Z,65.70
2022-09-12T21:18:42.314Z,65.75
2022-09-12T21:21:11.965Z,66.10
2022-09-12T21:23:39.501Z,66.18
2022-09-12T21:26:07.549Z,66.17
2022-09-12T21:28:34.769Z,66.66
2022-09-12T21:31:02.201Z,66.33
2022-09-12T21:33:29.601Z,66.28
2022-09-12T21:36:02.345Z,66.19
2022-09-12T21:38:30.490Z,66.28
2022-09-12T21:41:06.260Z,66.25
2022-09-12T21:43:34.166Z,66.38
2022-09-12T21:46:01.904Z,66.53
2022-09-12T21:48:29.263Z,66.75
2022-09-12T21:50:56.456Z,66.77
2022-09-12T21:53:24.045Z,66.85
2022-09-12T21:55:51.568Z,67.05
2022-09-12T21:58:19.058Z,67.03
2022-09-12T22:00:46.629Z,67.36
2022-09-12T22:03:14.882Z,67.56
2022-09-12T22:05:42.715Z,67.84
2022-09-12T22:08:11.202Z,67.89
2022-09-12T22:10:39.634Z,67.65
2022-09-12T22:13:07.536Z,67.70
2022-09-12T22:15:42.090Z,67.90
2022-09-12T22:18:04.699Z,68.29
2022-09-12T22:20:31.843Z,68.24
2022-09-12T22:23:22.420Z,68.56
2022-09-12T22:25:47.467Z,68.81
2022-09-12T22:28:15.413Z,68.90
2022-09-12T22:30:46.320Z,69.49
2022-09-12T22:33:13.900Z,69.35
2022-09-12T22:35:41.862Z,69.44
2022-09-12T22:38:09.390Z,69.52
2022-09-12T22:40:36.774Z,69.58
2022-09-12T22:43:04.253Z,69.90
2022-09-12T22:45:31.335Z,70.00
2022-09-12T22:48:00.763Z,70.19
2022-09-12T22:50:28.187Z,70.26
2022-09-12T22:52:55.562Z,70.28
2022-09-12T22:55:22.880Z,70.19
2022-09-12T22:57:50.071Z,70.35
2022-09-12T23:00:18.910Z,70.53
2022-09-12T23:02:46.126Z,70.72
2022-09-12T23:05:13.645Z,70.75
2022-09-12T23:07:40.943Z,70.90
2022-09-12T23:10:09.151Z,70.92
2022-09-12T23:12:36.586Z,70.96
2022-09-12T23:15:05.411Z,70.90
2022-09-12T23:17:34.994Z,70.88
2022-09-12T23:20:02.115Z,70.93
2022-09-12T23:22:29.483Z,71.01
2022-09-12T23:24:57.128Z,71.29
2022-09-12T23:27:27.416Z,71.36
2022-09-12T23:29:54.645Z,71.21
2022-09-12T23:32:22.072Z,71.49
2022-09-12T23:34:49.551Z,71.61
2022-09-12T23:37:16.970Z,71.74
2022-09-12T23:39:44.850Z,71.83
2022-09-12T23:42:12.277Z,71.76
2022-09-12T23:44:39.729Z,72.04
2022-09-12T23:47:07.011Z,72.23
2022-09-12T23:49:34.476Z,72.38
2022-09-12T23:52:02.011Z,72.57
2022-09-12T23:54:29.632Z,72.69
2022-09-12T23:56:57.179Z,72.48
2022-09-12T23:59:24.731Z,72.55
